sensor_id;sensor_type;location;lat;lon;timestamp;pressure;altitude;pressure_sealevel;temperature;humidity
70902;BME280;58548;47.210;8.618;2022-12-07T00:01:20;94044.63;;;10.73;38.76
70902;BME280;58548;47.210;8.618;2022-12-07T00:03:48;94047.47;;;10.78;38.33
70902;BME280;58548;47.210;8.618;2022-12-07T00:06:17;94042.06;;;10.80;38.43
70902;BME280;58548;47.210;8.618;2022-12-07T00:08:44;94045.72;;;10.85;38.01
70902;BME280;58548;47.210;8.618;2022-12-07T00:11:13;94091.91;;;11.13;38.36
70902;BME280;58548;47.210;8.618;2022-12-07T00:13:43;94088.88;;;11.10;38.70
70902;BME280;58548;47.210;8.618;2022-12-07T00:16:16;94034.19;;;10.73;38.36
70902;BME280;58548;47.210;8.618;2022-12-07T00:18:48;94088.50;;;11.13;38.76
70902;BME280;58548;47.210;8.618;2022-12-07T00:21:24;94040.06;;;10.82;38.58
70902;BME280;58548;47.210;8.618;2022-12-07T00:23:52;94087.09;;;11.17;38.30
70902;BME280;58548;47.210;8.618;2022-12-07T00:26:31;94037.44;;;10.82;38.12
70902;BME280;58548;47.210;8.618;2022-12-07T00:29:03;94064.72;;;11.08;37.48
70902;BME280;58548;47.210;8.618;2022-12-07T00:31:33;94021.59;;;10.83;37.61
70902;BME280;58548;47.210;8.618;2022-12-07T00:34:05;94065.09;;;11.05;37.46
70902;BME280;58548;47.210;8.618;2022-12-07T00:36:36;94078.44;;;11.16;38.06
70902;BME280;58548;47.210;8.618;2022-12-07T00:39:02;94059.63;;;10.93;37.68
70902;BME280;58548;47.210;8.618;2022-12-07T00:41:33;93965.75;;;10.27;37.72
70902;BME280;58548;47.210;8.618;2022-12-07T00:43:59;94078.78;;;11.07;37.29
70902;BME280;58548;47.210;8.618;2022-12-07T00:46:28;94080.97;;;10.96;38.22
70902;BME280;58548;47.210;8.618;2022-12-07T00:48:54;94030.41;;;10.47;37.69
70902;BME280;58548;47.210;8.618;2022-12-07T00:51:24;94021.50;;;10.41;38.32
70902;BME280;58548;47.210;8.618;2022-12-07T00:53:51;94075.59;;;10.76;38.33
70902;BME280;58548;47.210;8.618;2022-12-07T00:56:21;94051.63;;;10.66;38.46
70902;BME280;58548;47.210;8.618;2022-12-07T00:59:01;94027.22;;;10.52;38.64
70902;BME280;58548;47.210;8.618;2022-12-07T01:01:31;94007.19;;;10.59;38.27
70902;BME280;58548;47.210;8.618;2022-12-07T01:03:57;94025.06;;;10.62;38.33
70902;BME280;58548;47.210;8.618;2022-12-07T01:06:24;94062.19;;;10.86;37.79
70902;BME280;58548;47.210;8.618;2022-12-07T01:08:56;93995.53;;;10.33;37.79
70902;BME280;58548;47.210;8.618;2022-12-07T01:11:25;94025.97;;;10.48;38.02
70902;BME280;58548;47.210;8.618;2022-12-07T01:13:53;94020.34;;;10.44;38.10
70902;BME280;58548;47.210;8.618;2022-12-07T01:16:22;94031.88;;;10.56;38.01
70902;BME280;58548;47.210;8.618;2022-12-07T01:18:53;94023.00;;;10.51;38.26
70902;BME280;58548;47.210;8.618;2022-12-07T01:21:23;94025.28;;;10.61;38.26
70902;BME280;58548;47.210;8.618;2022-12-07T01:23:54;94063.44;;;10.90;38.24
70902;BME280;58548;47.210;8.618;2022-12-07T01:26:26;94074.34;;;11.00;38.11
70902;BME280;58548;47.210;8.618;2022-12-07T01:28:54;94056.63;;;10.96;37.97
70902;BME280;58548;47.210;8.618;2022-12-07T01:31:27;94074.19;;;11.09;38.39
70902;BME280;58548;47.210;8.618;2022-12-07T01:33:56;94081.06;;;11.16;38.30
70902;BME280;58548;47.210;8.618;2022-12-07T01:36:28;94058.72;;;11.07;38.51
70902;BME280;58548;47.210;8.618;2022-12-07T01:39:01;94020.84;;;10.90;38.28
70902;BME280;58548;47.210;8.618;2022-12-07T01:41:30;94074.47;;;11.27;37.99
70902;BME280;58548;47.210;8.618;2022-12-07T01:46:51;94061.19;;;11.22;37.98
70902;BME280;58548;47.210;8.618;2022-12-07T01:49:26;94064.41;;;11.24;38.33
70902;BME280;58548;47.210;8.618;2022-12-07T01:54:44;94058.34;;;11.17;38.55
70902;BME280;58548;47.210;8.618;2022-12-07T01:57:13;94062.00;;;11.23;38.90
70902;BME280;58548;47.210;8.618;2022-12-07T01:59:41;94052.13;;;11.18;38.60
70902;BME280;58548;47.210;8.618;2022-12-07T02:02:19;94058.78;;;11.27;38.35
70902;BME280;58548;47.210;8.618;2022-12-07T02:04:47;94009.19;;;10.92;38.65
70902;BME280;58548;47.210;8.618;2022-12-07T02:07:15;94066.47;;;11.29;38.18
70902;BME280;58548;47.210;8.618;2022-12-07T02:09:41;94059.19;;;11.24;38.26
70902;BME280;58548;47.210;8.618;2022-12-07T02:12:07;94004.72;;;10.86;38.44
70902;BME280;58548;47.210;8.618;2022-12-07T02:14:33;94057.38;;;11.25;38.17
70902;BME280;58548;47.210;8.618;2022-12-07T02:17:08;94008.78;;;10.95;38.30
70902;BME280;58548;47.210;8.618;2022-12-07T02:28:33;94053.41;;;11.36;38.30
70902;BME280;58548;47.210;8.618;2022-12-07T02:31:11;94041.53;;;11.33;38.37
70902;BME280;58548;47.210;8.618;2022-12-07T02:33:54;94024.16;;;11.19;38.09
70902;BME280;58548;47.210;8.618;2022-12-07T02:36:26;94049.94;;;11.28;38.17
70902;BME280;58548;47.210;8.618;2022-12-07T02:38:57;94046.34;;;11.29;38.14
70902;BME280;58548;47.210;8.618;2022-12-07T02:41:37;93991.28;;;10.96;38.43
70902;BME280;58548;47.210;8.618;2022-12-07T02:44:13;94032.03;;;11.25;38.18
70902;BME280;58548;47.210;8.618;2022-12-07T02:46:44;94039.94;;;11.32;38.26
70902;BME280;58548;47.210;8.618;2022-12-07T02:49:18;94043.94;;;11.35;38.66
70902;BME280;58548;47.210;8.618;2022-12-07T02:51:46;94041.94;;;11.30;38.44
70902;BME280;58548;47.210;8.618;2022-12-07T02:54:20;94042.72;;;11.30;38.30
70902;BME280;58548;47.210;8.618;2022-12-07T03:13:56;94034.72;;;11.39;38.25
70902;BME280;58548;47.210;8.618;2022-12-07T03:16:41;93961.75;;;10.95;38.65
70902;BME280;58548;47.210;8.618;2022-12-07T03:19:17;93975.88;;;11.08;38.75
70902;BME280;58548;47.210;8.618;2022-12-07T03:21:51;93977.50;;;11.09;38.60
70902;BME280;58548;47.210;8.618;2022-12-07T03:24:26;94020.66;;;11.40;38.42
70902;BME280;58548;47.210;8.618;2022-12-07T03:27:06;93997.25;;;11.25;38.69
70902;BME280;58548;47.210;8.618;2022-12-07T03:35:23;94031.09;;;11.40;38.50
70902;BME280;58548;47.210;8.618;2022-12-07T03:37:55;94036.53;;;11.45;38.25
70902;BME280;58548;47.210;8.618;2022-12-07T03:42:51;94024.28;;;11.45;38.23
70902;BME280;58548;47.210;8.618;2022-12-07T03:45:25;94023.88;;;11.42;38.12
70902;BME280;58548;47.210;8.618;2022-12-07T03:48:07;94017.06;;;11.48;38.07
70902;BME280;58548;47.210;8.618;2022-12-07T03:50:43;94017.44;;;11.51;38.09
70902;BME280;58548;47.210;8.618;2022-12-07T03:53:24;94005.38;;;11.43;38.40
70902;BME280;58548;47.210;8.618;2022-12-07T03:55:54;94028.69;;;11.45;38.42
70902;BME280;58548;47.210;8.618;2022-12-07T03:58:24;94003.72;;;11.36;38.17
70902;BME280;58548;47.210;8.618;2022-12-07T04:00:51;94010.81;;;11.42;38.50
70902;BME280;58548;47.210;8.618;2022-12-07T04:03:17;93973.91;;;11.16;38.32
70902;BME280;58548;47.210;8.618;2022-12-07T04:05:44;94012.41;;;11.43;38.49
70902;BME280;58548;47.210;8.618;2022-12-07T04:08:10;94029.94;;;11.56;37.91
70902;BME280;58548;47.210;8.618;2022-12-07T04:10:36;93971.72;;;11.20;38.10
70902;BME280;58548;47.210;8.618;2022-12-07T04:13:02;94009.81;;;11.43;37.68
70902;BME280;58548;47.210;8.618;2022-12-07T04:15:28;94032.75;;;11.54;38.00
70902;BME280;58548;47.210;8.618;2022-12-07T04:17:58;93983.38;;;11.24;38.41
70902;BME280;58548;47.210;8.618;2022-12-07T04:20:29;93958.81;;;11.12;38.29
70902;BME280;58548;47.210;8.618;2022-12-07T04:22:57;93977.34;;;11.24;38.18
70902;BME280;58548;47.210;8.618;2022-12-07T04:25:25;93977.75;;;11.27;38.23
70902;BME280;58548;47.210;8.618;2022-12-07T04:27:53;93974.94;;;11.22;38.09
70902;BME280;58548;47.210;8.618;2022-12-07T04:30:22;93975.53;;;11.24;38.47
70902;BME280;58548;47.210;8.618;2022-12-07T04:32:48;93973.53;;;11.26;38.18
70902;BME280;58548;47.210;8.618;2022-12-07T04:35:14;94029.13;;;11.55;38.55
70902;BME280;58548;47.210;8.618;2022-12-07T04:37:40;94023.09;;;11.55;38.31
70902;BME280;58548;47.210;8.618;2022-12-07T04:40:08;93973.31;;;11.21;38.31
70902;BME280;58548;47.210;8.618;2022-12-07T04:42:38;94029.75;;;11.57;38.20
70902;BME280;58548;47.210;8.618;2022-12-07T04:45:07;94027.72;;;11.53;38.45
70902;BME280;58548;47.210;8.618;2022-12-07T04:47:37;94000.72;;;11.39;38.50
70902;BME280;58548;47.210;8.618;2022-12-07T04:50:04;93965.88;;;11.18;38.09
70902;BME280;58548;47.210;8.618;2022-12-07T04:52:30;94030.97;;;11.61;38.34
70902;BME280;58548;47.210;8.618;2022-12-07T04:54:56;94033.97;;;11.58;38.73
70902;BME280;58548;47.210;8.618;2022-12-07T04:57:24;93971.28;;;11.23;38.38
70902;BME280;58548;47.210;8.618;2022-12-07T04:59:50;94028.34;;;11.61;38.54
70902;BME280;58548;47.210;8.618;2022-12-07T05:02:18;94026.28;;;11.50;38.41
70902;BME280;58548;47.210;8.618;2022-12-07T05:04:44;93977.13;;;11.19;38.33
70902;BME280;58548;47.210;8.618;2022-12-07T05:07:12;94027.91;;;11.51;38.13
70902;BME280;58548;47.210;8.618;2022-12-07T05:09:40;93975.31;;;11.19;38.45
70902;BME280;58548;47.210;8.618;2022-12-07T05:12:08;94006.50;;;11.27;38.49
70902;BME280;58548;47.210;8.618;2022-12-07T05:14:34;94016.03;;;11.42;38.48
70902;BME280;58548;47.210;8.618;2022-12-07T05:17:02;94032.53;;;11.56;38.69
70902;BME280;58548;47.210;8.618;2022-12-07T05:19:30;94007.78;;;11.45;38.38
70902;BME280;58548;47.210;8.618;2022-12-07T05:21:59;94028.34;;;11.61;38.09
70902;BME280;58548;47.210;8.618;2022-12-07T05:24:29;93976.75;;;11.28;38.17
70902;BME280;58548;47.210;8.618;2022-12-07T05:26:57;93972.09;;;11.17;37.78
70902;BME280;58548;47.210;8.618;2022-12-07T05:29:23;94030.97;;;11.61;37.92
70902;BME280;58548;47.210;8.618;2022-12-07T05:31:49;94031.59;;;11.64;38.16
70902;BME280;58548;47.210;8.618;2022-12-07T05:34:15;94024.75;;;11.63;37.86
70902;BME280;58548;47.210;8.618;2022-12-07T05:36:41;94025.91;;;11.60;37.95
70902;BME280;58548;47.210;8.618;2022-12-07T05:39:07;94025.16;;;11.66;38.54
70902;BME280;58548;47.210;8.618;2022-12-07T05:41:37;94023.13;;;11.61;37.92
70902;BME280;58548;47.210;8.618;2022-12-07T05:44:47;93970.28;;;11.24;38.03
70902;BME280;58548;47.210;8.618;2022-12-07T05:47:14;94015.84;;;11.50;38.21
70902;BME280;58548;47.210;8.618;2022-12-07T05:49:43;94002.13;;;11.41;38.23
70902;BME280;58548;47.210;8.618;2022-12-07T05:52:11;94009.38;;;11.39;38.27
70902;BME280;58548;47.210;8.618;2022-12-07T05:54:37;94030.53;;;11.51;38.52
70902;BME280;58548;47.210;8.618;2022-12-07T05:57:03;93978.72;;;11.20;38.55
70902;BME280;58548;47.210;8.618;2022-12-07T05:59:31;94020.47;;;11.48;37.94
70902;BME280;58548;47.210;8.618;2022-12-07T06:02:06;94046.84;;;11.53;37.79
70902;BME280;58548;47.210;8.618;2022-12-07T06:04:36;94017.41;;;11.31;38.46
70902;BME280;58548;47.210;8.618;2022-12-07T06:07:06;94011.34;;;11.30;37.90
70902;BME280;58548;47.210;8.618;2022-12-07T06:09:35;94009.56;;;11.31;38.41
70902;BME280;58548;47.210;8.618;2022-12-07T06:12:02;94025.25;;;11.38;38.41
70902;BME280;58548;47.210;8.618;2022-12-07T06:14:47;94029.09;;;11.42;37.90
70902;BME280;58548;47.210;8.618;2022-12-07T06:17:15;94019.19;;;11.30;38.58
70902;BME280;58548;47.210;8.618;2022-12-07T06:19:42;94035.16;;;11.49;38.62
70902;BME280;58548;47.210;8.618;2022-12-07T06:22:09;94001.66;;;11.24;38.57
70902;BME280;58548;47.210;8.618;2022-12-07T06:24:38;94015.56;;;11.31;38.49
70902;BME280;58548;47.210;8.618;2022-12-07T06:27:04;94017.03;;;11.41;38.16
70902;BME280;58548;47.210;8.618;2022-12-07T06:29:30;94032.75;;;11.54;38.48
70902;BME280;58548;47.210;8.618;2022-12-07T06:31:58;93974.31;;;11.20;38.42
70902;BME280;58548;47.210;8.618;2022-12-07T06:34:26;93983.19;;;11.26;38.12
70902;BME280;58548;47.210;8.618;2022-12-07T06:36:53;94023.91;;;11.55;38.17
70902;BME280;58548;47.210;8.618;2022-12-07T06:39:26;93980.38;;;11.27;38.51
70902;BME280;58548;47.210;8.618;2022-12-07T06:41:56;94036.22;;;11.61;38.12
70902;BME280;58548;47.210;8.618;2022-12-07T06:44:25;93984.59;;;11.35;37.89
70902;BME280;58548;47.210;8.618;2022-12-07T06:46:52;94033.00;;;11.66;38.45
70902;BME280;58548;47.210;8.618;2022-12-07T06:49:20;93992.88;;;11.39;38.28
70902;BME280;58548;47.210;8.618;2022-12-07T06:51:48;94035.00;;;11.64;38.10
70902;BME280;58548;47.210;8.618;2022-12-07T06:54:17;94036.59;;;11.65;38.54
70902;BME280;58548;47.210;8.618;2022-12-07T06:56:45;94042.25;;;11.69;38.31
70902;BME280;58548;47.210;8.618;2022-12-07T06:59:11;94039.22;;;11.72;37.87
70902;BME280;58548;47.210;8.618;2022-12-07T07:01:37;93926.19;;;10.94;38.27
70902;BME280;58548;47.210;8.618;2022-12-07T07:04:03;93986.44;;;11.35;38.21
70902;BME280;58548;47.210;8.618;2022-12-07T07:06:29;93979.19;;;11.30;38.16
70902;BME280;58548;47.210;8.618;2022-12-07T07:08:58;94034.19;;;11.64;38.17
70902;BME280;58548;47.210;8.618;2022-12-07T07:11:23;94047.69;;;11.74;37.96
70902;BME280;58548;47.210;8.618;2022-12-07T07:13:57;93988.44;;;11.39;38.43
70902;BME280;58548;47.210;8.618;2022-12-07T07:16:30;94000.13;;;11.43;38.40
70902;BME280;58548;47.210;8.618;2022-12-07T07:18:56;94051.53;;;11.78;38.46
70902;BME280;58548;47.210;8.618;2022-12-07T07:21:23;94052.53;;;11.77;38.45
70902;BME280;58548;47.210;8.618;2022-12-07T07:23:56;94034.00;;;11.65;38.62
70902;BME280;58548;47.210;8.618;2022-12-07T07:26:25;94028.97;;;11.70;38.44
70902;BME280;58548;47.210;8.618;2022-12-07T07:28:50;94025.94;;;11.67;38.71
70902;BME280;58548;47.210;8.618;2022-12-07T07:31:21;93994.91;;;11.43;38.65
70902;BME280;58548;47.210;8.618;2022-12-07T07:33:47;94027.97;;;11.71;38.40
70902;BME280;58548;47.210;8.618;2022-12-07T07:36:13;94038.47;;;11.78;38.95
70902;BME280;58548;47.210;8.618;2022-12-07T07:38:41;94025.94;;;11.67;38.52
70902;BME280;58548;47.210;8.618;2022-12-07T07:41:11;94001.53;;;11.46;38.41
70902;BME280;58548;47.210;8.618;2022-12-07T07:43:40;94028.75;;;11.65;38.65
70902;BME280;58548;47.210;8.618;2022-12-07T07:46:05;93982.59;;;11.37;38.71
70902;BME280;58548;47.210;8.618;2022-12-07T07:48:34;94057.78;;;11.77;38.49
70902;BME280;58548;47.210;8.618;2022-12-07T07:51:06;93982.41;;;11.32;38.99
70902;BME280;58548;47.210;8.618;2022-12-07T07:53:32;94055.75;;;11.72;38.33
70902;BME280;58548;47.210;8.618;2022-12-07T07:55:58;94062.38;;;11.68;38.75
70902;BME280;58548;47.210;8.618;2022-12-07T07:58:26;94046.44;;;11.56;38.83
70902;BME280;58548;47.210;8.618;2022-12-07T08:00:52;93997.88;;;11.34;38.94
70902;BME280;58548;47.210;8.618;2022-12-07T08:03:18;94057.53;;;11.65;38.93
70902;BME280;58548;47.210;8.618;2022-12-07T08:05:44;94013.38;;;11.35;39.46
70902;BME280;58548;47.210;8.618;2022-12-07T08:08:10;94060.16;;;11.72;39.23
70902;BME280;58548;47.210;8.618;2022-12-07T08:10:41;93998.88;;;11.32;38.96
70902;BME280;58548;47.210;8.618;2022-12-07T08:13:07;94018.84;;;11.47;38.75
70902;BME280;58548;47.210;8.618;2022-12-07T08:15:44;94063.78;;;11.77;39.20
70902;BME280;58548;47.210;8.618;2022-12-07T08:18:15;94045.25;;;11.66;39.44
70902;BME280;58548;47.210;8.618;2022-12-07T08:20:44;94057.56;;;11.79;38.88
70902;BME280;58548;47.210;8.618;2022-12-07T08:23:12;94060.19;;;11.79;39.18
70902;BME280;58548;47.210;8.618;2022-12-07T08:25:40;94042.06;;;11.77;39.09
70902;BME280;58548;47.210;8.618;2022-12-07T08:28:08;94041.47;;;11.75;38.73
70902;BME280;58548;47.210;8.618;2022-12-07T08:30:36;94063.03;;;11.90;38.75
70902;BME280;58548;47.210;8.618;2022-12-07T08:33:02;94051.31;;;11.80;38.64
70902;BME280;58548;47.210;8.618;2022-12-07T08:35:33;93995.75;;;11.51;39.12
70902;BME280;58548;47.210;8.618;2022-12-07T08:37:59;94071.53;;;11.99;38.91
70902;BME280;58548;47.210;8.618;2022-12-07T08:40:28;94066.47;;;11.98;38.37
70902;BME280;58548;47.210;8.618;2022-12-07T08:42:56;94007.63;;;11.67;39.06
70902;BME280;58548;47.210;8.618;2022-12-07T08:45:22;94054.78;;;11.94;38.81
70902;BME280;58548;47.210;8.618;2022-12-07T08:48:03;94045.72;;;11.89;38.96
70902;BME280;58548;47.210;8.618;2022-12-07T08:50:36;94068.53;;;12.09;39.00
70902;BME280;58548;47.210;8.618;2022-12-07T08:53:06;94019.53;;;11.76;38.94
70902;BME280;58548;47.210;8.618;2022-12-07T08:55:33;94028.59;;;11.73;38.81
70902;BME280;58548;47.210;8.618;2022-12-07T08:58:03;94054.16;;;11.91;38.68
70902;BME280;58548;47.210;8.618;2022-12-07T09:00:31;94073.97;;;12.01;38.64
70902;BME280;58548;47.210;8.618;2022-12-07T09:03:00;94037.84;;;11.89;38.46
70902;BME280;58548;47.210;8.618;2022-12-07T09:05:35;94071.34;;;12.14;38.70
70902;BME280;58548;47.210;8.618;2022-12-07T09:08:01;94072.97;;;12.15;38.54
70902;BME280;58548;47.210;8.618;2022-12-07T09:10:29;94039.28;;;11.92;38.99
70902;BME280;58548;47.210;8.618;2022-12-07T09:12:57;94060.28;;;12.12;38.64
70902;BME280;58548;47.210;8.618;2022-12-07T09:15:30;94075.19;;;12.18;38.61
70902;BME280;58548;47.210;8.618;2022-12-07T09:17:57;94071.19;;;12.16;39.27
70902;BME280;58548;47.210;8.618;2022-12-07T09:20:25;94013.69;;;11.87;38.85
70902;BME280;58548;47.210;8.618;2022-12-07T09:22:51;94027.41;;;11.89;38.77
70902;BME280;58548;47.210;8.618;2022-12-07T09:25:16;94049.41;;;12.15;38.62
70902;BME280;58548;47.210;8.618;2022-12-07T09:27:42;94046.59;;;12.17;38.56
70902;BME280;58548;47.210;8.618;2022-12-07T09:30:08;94001.63;;;11.86;38.30
70902;BME280;58548;47.210;8.618;2022-12-07T09:32:34;94073.19;;;12.34;38.71
70902;BME280;58548;47.210;8.618;2022-12-07T09:35:00;94045.00;;;12.16;38.16
70902;BME280;58548;47.210;8.618;2022-12-07T09:37:27;94072.78;;;12.37;38.72
70902;BME280;58548;47.210;8.618;2022-12-07T09:39:55;94050.41;;;12.21;38.49
70902;BME280;58548;47.210;8.618;2022-12-07T09:42:35;94015.59;;;12.07;39.10
70902;BME280;58548;47.210;8.618;2022-12-07T09:45:10;94021.22;;;12.04;38.95
70902;BME280;58548;47.210;8.618;2022-12-07T09:47:37;94060.69;;;12.36;38.98
70902;BME280;58548;47.210;8.618;2022-12-07T09:50:13;94076.22;;;12.44;38.47
70902;BME280;58548;47.210;8.618;2022-12-07T09:52:41;94073.63;;;12.44;38.42
70902;BME280;58548;47.210;8.618;2022-12-07T09:55:13;94071.59;;;12.53;38.67
70902;BME280;58548;47.210;8.618;2022-12-07T09:57:42;94017.19;;;12.21;38.17
70902;BME280;58548;47.210;8.618;2022-12-07T10:00:19;94017.19;;;12.28;38.44
70902;BME280;58548;47.210;8.618;2022-12-07T10:02:52;94068.34;;;12.71;37.89
70902;BME280;58548;47.210;8.618;2022-12-07T10:05:31;94065.16;;;12.69;38.01
70902;BME280;58548;47.210;8.618;2022-12-07T10:08:00;94012.75;;;12.29;37.94
70902;BME280;58548;47.210;8.618;2022-12-07T10:10:31;94016.19;;;12.23;37.95
70902;BME280;58548;47.210;8.618;2022-12-07T10:13:06;94054.25;;;12.52;37.85
70902;BME280;58548;47.210;8.618;2022-12-07T10:15:54;94047.22;;;12.59;38.10
70902;BME280;58548;47.210;8.618;2022-12-07T10:18:41;94018.00;;;12.42;37.82
70902;BME280;58548;47.210;8.618;2022-12-07T10:23:37;94061.91;;;12.67;37.88
70902;BME280;58548;47.210;8.618;2022-12-07T10:28:55;94053.03;;;12.55;37.54
70902;BME280;58548;47.210;8.618;2022-12-07T10:31:26;93999.88;;;12.27;37.54
70902;BME280;58548;47.210;8.618;2022-12-07T10:34:12;94046.22;;;12.60;37.78
70902;BME280;58548;47.210;8.618;2022-12-07T10:36:41;94021.22;;;12.44;37.69
70902;BME280;58548;47.210;8.618;2022-12-07T10:39:13;93995.03;;;12.24;37.77
70902;BME280;58548;47.210;8.618;2022-12-07T10:44:35;94035.31;;;12.57;37.99
70902;BME280;58548;47.210;8.618;2022-12-07T10:52:39;94030.06;;;12.57;37.53
70902;BME280;58548;47.210;8.618;2022-12-07T11:06:34;93947.91;;;12.31;37.91
70902;BME280;58548;47.210;8.618;2022-12-07T11:11:38;94008.69;;;12.73;37.75
70902;BME280;58548;47.210;8.618;2022-12-07T11:17:17;94005.28;;;12.73;37.81
70902;BME280;58548;47.210;8.618;2022-12-07T11:20:05;93937.22;;;12.39;37.92
70902;BME280;58548;47.210;8.618;2022-12-07T11:26:00;93991.34;;;12.72;38.21
70902;BME280;58548;47.210;8.618;2022-12-07T11:36:46;93981.47;;;12.74;37.96
70902;BME280;58548;47.210;8.618;2022-12-07T11:39:28;93984.50;;;12.78;37.76
70902;BME280;58548;47.210;8.618;2022-12-07T11:42:09;93964.13;;;12.73;37.60
70902;BME280;58548;47.210;8.618;2022-12-07T11:52:51;93958.50;;;12.70;38.16
70902;BME280;58548;47.210;8.618;2022-12-07T11:58:09;93958.31;;;12.78;38.01
70902;BME280;58548;47.210;8.618;2022-12-07T12:00:39;93963.53;;;12.85;37.97
70902;BME280;58548;47.210;8.618;2022-12-07T12:03:20;93956.44;;;12.85;37.93
70902;BME280;58548;47.210;8.618;2022-12-07T12:05:49;93958.63;;;12.95;38.33
70902;BME280;58548;47.210;8.618;2022-12-07T12:08:28;93964.66;;;13.02;38.27
70902;BME280;58548;47.210;8.618;2022-12-07T12:11:18;93907.94;;;12.69;38.35
70902;BME280;58548;47.210;8.618;2022-12-07T12:14:10;93949.75;;;13.03;37.94
70902;BME280;58548;47.210;8.618;2022-12-07T12:21:56;93926.34;;;13.01;38.39
70902;BME280;58548;47.210;8.618;2022-12-07T12:24:29;93948.94;;;13.02;38.16
70902;BME280;58548;47.210;8.618;2022-12-07T12:27:26;93940.47;;;13.00;38.22
70902;BME280;58548;47.210;8.618;2022-12-07T12:30:01;93883.50;;;12.75;38.52
70902;BME280;58548;47.210;8.618;2022-12-07T12:32:42;93934.00;;;13.09;38.04
70902;BME280;58548;47.210;8.618;2022-12-07T12:35:29;93934.75;;;13.17;38.01
70902;BME280;58548;47.210;8.618;2022-12-07T12:38:27;93933.31;;;13.21;37.99
70902;BME280;58548;47.210;8.618;2022-12-07T12:40:54;93932.34;;;13.15;38.02
70902;BME280;58548;47.210;8.618;2022-12-07T12:43:47;93938.78;;;13.19;37.97
70902;BME280;58548;47.210;8.618;2022-12-07T12:46:38;93925.13;;;13.10;38.21
70902;BME280;58548;47.210;8.618;2022-12-07T12:49:39;93932.91;;;13.24;38.26
70902;BME280;58548;47.210;8.618;2022-12-07T12:54:37;93856.25;;;12.83;38.04
70902;BME280;58548;47.210;8.618;2022-12-07T12:57:11;93874.41;;;12.85;37.60
70902;BME280;58548;47.210;8.618;2022-12-07T13:02:37;93874.78;;;12.88;37.92
70902;BME280;58548;47.210;8.618;2022-12-07T13:10:35;93910.31;;;13.23;38.09
70902;BME280;58548;47.210;8.618;2022-12-07T13:15:53;93913.78;;;13.23;37.20
70902;BME280;58548;47.210;8.618;2022-12-07T13:24:06;93839.00;;;12.69;36.85
70902;BME280;58548;47.210;8.618;2022-12-07T13:26:41;93903.28;;;13.17;37.20
70902;BME280;58548;47.210;8.618;2022-12-07T13:29:18;93891.03;;;13.10;36.94
70902;BME280;58548;47.210;8.618;2022-12-07T13:31:55;93870.16;;;12.90;37.25
70902;BME280;58548;47.210;8.618;2022-12-07T13:37:10;93886.44;;;12.99;37.53
70902;BME280;58548;47.210;8.618;2022-12-07T13:42:35;93888.28;;;12.99;37.42
70902;BME280;58548;47.210;8.618;2022-12-07T13:45:24;93886.84;;;13.03;37.26
70902;BME280;58548;47.210;8.618;2022-12-07T13:48:33;93882.88;;;12.87;37.48
70902;BME280;58548;47.210;8.618;2022-12-07T13:51:04;93889.34;;;12.77;37.69
70902;BME280;58548;47.210;8.618;2022-12-07T13:53:33;93883.28;;;12.84;37.67
70902;BME280;58548;47.210;8.618;2022-12-07T13:56:00;93885.53;;;12.80;37.48
70902;BME280;58548;47.210;8.618;2022-12-07T13:58:30;93887.34;;;12.79;37.64
70902;BME280;58548;47.210;8.618;2022-12-07T14:01:00;93868.47;;;12.64;38.02
70902;BME280;58548;47.210;8.618;2022-12-07T14:03:34;93862.81;;;12.67;37.64
70902;BME280;58548;47.210;8.618;2022-12-07T14:08:39;93834.50;;;12.37;38.04
70902;BME280;58548;47.210;8.618;2022-12-07T14:11:12;93866.47;;;12.52;38.04
70902;BME280;58548;47.210;8.618;2022-12-07T14:13:57;93806.97;;;12.14;37.93
70902;BME280;58548;47.210;8.618;2022-12-07T14:16:31;93874.50;;;12.58;38.34
70902;BME280;58548;47.210;8.618;2022-12-07T14:18:59;93873.72;;;12.50;37.98
70902;BME280;58548;47.210;8.618;2022-12-07T14:21:28;93859.66;;;12.45;37.85
70902;BME280;58548;47.210;8.618;2022-12-07T14:24:18;93825.88;;;12.16;37.53
70902;BME280;58548;47.210;8.618;2022-12-07T14:26:47;93829.47;;;12.29;37.75
70902;BME280;58548;47.210;8.618;2022-12-07T14:31:54;93867.66;;;12.57;37.77
70902;BME280;58548;47.210;8.618;2022-12-07T14:34:22;93827.03;;;12.34;37.52
70902;BME280;58548;47.210;8.618;2022-12-07T14:36:49;93864.81;;;12.65;37.47
70902;BME280;58548;47.210;8.618;2022-12-07T14:39:15;93857.81;;;12.52;37.77
70902;BME280;58548;47.210;8.618;2022-12-07T14:41:43;93865.25;;;12.55;37.94
70902;BME280;58548;47.210;8.618;2022-12-07T14:44:20;93869.88;;;12.60;38.21
70902;BME280;58548;47.210;8.618;2022-12-07T14:46:48;93866.63;;;12.64;38.11
70902;BME280;58548;47.210;8.618;2022-12-07T14:49:15;93869.66;;;12.68;38.29
70902;BME280;58548;47.210;8.618;2022-12-07T14:51:46;93839.28;;;12.47;38.26
70902;BME280;58548;47.210;8.618;2022-12-07T14:54:18;93874.91;;;12.68;38.15
70902;BME280;58548;47.210;8.618;2022-12-07T14:56:49;93856.78;;;12.60;38.10
70902;BME280;58548;47.210;8.618;2022-12-07T14:59:18;93814.97;;;12.33;37.64
70902;BME280;58548;47.210;8.618;2022-12-07T15:01:47;93840.72;;;12.49;37.94
70902;BME280;58548;47.210;8.618;2022-12-07T15:04:13;93847.72;;;12.56;37.90
70902;BME280;58548;47.210;8.618;2022-12-07T15:06:39;93799.09;;;12.28;38.38
70902;BME280;58548;47.210;8.618;2022-12-07T15:09:05;93866.44;;;12.66;37.75
70902;BME280;58548;47.210;8.618;2022-12-07T15:11:31;93809.78;;;12.19;37.59
70902;BME280;58548;47.210;8.618;2022-12-07T15:13:59;93875.13;;;12.60;37.93
70902;BME280;58548;47.210;8.618;2022-12-07T15:16:36;93853.97;;;12.55;37.99
70902;BME280;58548;47.210;8.618;2022-12-07T15:19:03;93855.16;;;12.59;38.35
70902;BME280;58548;47.210;8.618;2022-12-07T15:21:29;93864.41;;;12.68;37.92
70902;BME280;58548;47.210;8.618;2022-12-07T15:23:55;93855.19;;;12.52;37.60
70902;BME280;58548;47.210;8.618;2022-12-07T15:26:24;93817.59;;;12.26;37.36
70902;BME280;58548;47.210;8.618;2022-12-07T15:28:53;93862.44;;;12.57;37.90